Terminal Aerodrome Forecast
Issued by NWS Quad Cities IA IL

Home | Current Version | Previous Version | Text Only | Print | Product List | Glossary On
Versions: 1 2 3 4 5 6 7 8 9 10 11 12 13 14 15 16 17 18 19 20 21 22
000
FTUS43 KDVN 290520
TAFDBQ
TAF
KDBQ 290520Z 2906/3006 03014KT P6SM OVC050
     FM291900 05016G23KT 4SM -RA BR OVC020
     FM300100 06015G22KT P6SM OVC012=

USA.gov is the U.S. government's official web portal to all federal, state and local government web resources and services.